Time;durP1;ratioP1;P1;durP2;ratioP2;P2;SDS_P1;SDS_P2;PMS_P1;PMS_P2;Temp;Humidity;BMP_temperature;BMP_pressure;BME280_temperature;BME280_humidity;BME280_pressure;Samples;Min_cycle;Max_cycle;Signal;HPM_P1;HPM_P2
2022/03/23 00:02:26;;;;;;;14.90;7.63;;;3.90;55.30;;;2.16;49.58;101771.75;10256354;28;96782;-77
2022/03/23 00:07:29;;;;;;;14.53;6.70;;;3.90;55.10;;;2.19;49.21;101768.13;10292016;28;96893;-77
2022/03/23 00:12:32;;;;;;;16.77;7.17;;;3.90;54.80;;;2.19;49.60;101762.88;10235816;28;96483;-77
2022/03/23 00:17:35;;;;;;;16.63;7.67;;;3.90;55.70;;;2.15;50.17;101762.19;10248668;28;96614;-77
2022/03/23 00:22:38;;;;;;;14.40;6.37;;;3.80;55.80;;;2.14;50.12;101763.94;10247187;28;96675;-77
2022/03/23 00:27:41;;;;;;;14.43;7.03;;;3.80;55.90;;;2.15;49.98;101759.56;10259794;28;96447;-77
2022/03/23 00:32:44;;;;;;;12.10;5.43;;;3.80;55.60;;;2.14;50.27;101758.69;10250734;28;96532;-77
2022/03/23 00:37:47;;;;;;;11.00;4.83;;;3.80;56.00;;;2.19;50.01;101752.41;10234708;28;96458;-77
2022/03/23 00:42:50;;;;;;;9.83;5.17;;;3.90;55.70;;;2.23;49.78;101753.94;10252463;28;96562;-76
2022/03/23 00:47:53;;;;;;;15.50;6.40;;;3.90;55.10;;;2.34;49.20;101746.38;10244169;28;96777;-77
2022/03/23 00:52:56;;;;;;;9.07;4.80;;;4.00;55.00;;;2.45;48.86;101751.06;10234630;28;96820;-77
2022/03/23 00:57:59;;;;;;;12.93;5.47;;;4.10;54.80;;;2.56;48.65;101744.34;10251334;28;98587;-77
2022/03/23 01:03:04;;;;;;;14.20;6.00;;;4.10;54.50;;;2.58;48.50;101755.66;10288233;28;96560;-77
2022/03/23 01:08:07;;;;;;;13.83;6.23;;;4.20;54.30;;;2.47;48.20;101750.09;10290687;28;96570;-77
2022/03/23 01:13:10;;;;;;;12.10;6.27;;;4.20;53.90;;;2.35;49.11;101742.84;10237263;28;96639;-77
2022/03/23 01:18:13;;;;;;;10.67;5.33;;;4.10;54.70;;;2.21;49.58;101755.78;10234840;28;96595;-77
2022/03/23 01:23:16;;;;;;;12.83;6.37;;;4.00;56.20;;;2.07;50.14;101751.22;10251467;28;96609;-77
2022/03/23 01:28:20;;;;;;;17.37;6.43;;;3.90;55.00;;;1.93;50.50;101753.69;10228694;28;96601;-77
2022/03/23 01:33:22;;;;;;;15.43;6.47;;;3.70;55.00;;;1.77;50.95;101738.69;10241937;28;98073;-77
2022/03/23 01:38:25;;;;;;;11.97;6.27;;;3.60;56.30;;;1.70;50.53;101746.91;10233257;28;96580;-77
2022/03/23 01:43:33;;;;;;;12.60;5.53;;;3.50;56.40;;;1.67;50.93;101745.28;10231933;28;96449;-77
2022/03/23 01:48:36;;;;;;;11.83;6.03;;;3.50;56.40;;;1.72;51.02;101739.81;10250197;28;96609;-77
2022/03/23 01:53:40;;;;;;;12.53;5.43;;;3.50;57.10;;;1.71;51.00;101738.13;10273455;28;98434;-77
2022/03/23 01:58:43;;;;;;;10.53;4.70;;;3.50;57.20;;;1.70;50.92;101734.66;10240124;28;98490;-77
2022/03/23 02:03:46;;;;;;;8.00;4.70;;;3.50;57.10;;;1.70;51.01;101729.41;10265345;28;96653;-77
2022/03/23 02:08:49;;;;;;;7.87;4.50;;;3.50;56.90;;;1.84;49.87;101729.59;10266924;28;96576;-77
2022/03/23 02:13:53;;;;;;;15.73;6.20;;;3.60;55.90;;;1.99;49.81;101724.53;10261771;28;98002;-76
2022/03/23 02:18:56;;;;;;;10.80;5.83;;;3.70;56.10;;;2.09;49.61;101725.75;10271342;28;96720;-76
2022/03/23 02:24:02;;;;;;;12.53;6.10;;;3.70;56.00;;;2.12;49.30;101723.00;10266247;28;96620;-76
2022/03/23 02:29:06;;;;;;;11.73;5.53;;;3.80;55.90;;;2.26;48.96;101732.78;10313559;28;97202;-75
2022/03/23 02:34:10;;;;;;;21.80;9.13;;;3.90;55.80;;;2.36;48.47;101728.78;10295886;28;96878;-76
2022/03/23 02:39:13;;;;;;;18.63;6.63;;;4.00;55.20;;;2.25;49.30;101726.69;10329829;28;97669;-76
2022/03/23 02:44:17;;;;;;;18.00;6.93;;;3.90;55.30;;;2.09;49.15;101725.75;10309981;28;96592;-76
2022/03/23 02:49:20;;;;;;;14.17;7.03;;;3.90;55.50;;;1.99;49.36;101733.25;10285547;28;96604;-76
2022/03/23 03:05:47;;;;;;;16.13;7.40;;;3.60;55.60;;;1.59;50.98;101726.47;10296306;28;96536;-75
2022/03/23 03:10:50;;;;;;;17.13;7.07;;;3.40;57.30;;;1.41;51.64;101727.31;10298860;28;97409;-76
2022/03/23 03:15:53;;;;;;;12.70;6.50;;;3.20;57.40;;;1.26;52.37;101727.13;10301942;28;96580;-75
2022/03/23 03:20:56;;;;;;;16.97;7.77;;;3.10;57.90;;;1.12;52.73;101726.91;10314092;28;96724;-77
2022/03/23 03:26:05;;;;;;;12.07;5.50;;;3.00;57.80;;;0.94;53.01;101723.34;10274714;28;96555;-78
2022/03/23 03:31:12;;;;;;;16.67;6.63;;;2.80;58.20;;;0.79;53.40;101724.88;10268702;28;96867;-77
2022/03/23 03:36:16;;;;;;;15.10;7.17;;;2.70;58.40;;;0.65;53.94;101732.47;10256628;28;97032;-77
2022/03/23 03:41:19;;;;;;;12.17;6.43;;;2.60;58.10;;;0.57;54.69;101728.50;10256381;28;97072;-76
2022/03/23 03:46:22;;;;;;;11.40;5.30;;;2.50;59.90;;;0.48;54.93;101725.38;10240602;28;96530;-75
2022/03/23 03:51:25;;;;;;;10.60;6.03;;;2.40;59.90;;;0.45;55.32;101730.72;10236354;28;96338;-75
2022/03/23 03:56:27;;;;;;;12.73;5.67;;;2.30;61.40;;;0.50;55.12;101727.94;10255094;28;97248;-77
2022/03/23 04:01:30;;;;;;;15.30;6.13;;;2.30;59.60;;;0.53;55.69;101733.00;10263787;28;96587;-77
2022/03/23 04:06:34;;;;;;;15.77;7.50;;;2.30;60.50;;;0.60;55.55;101739.69;10263235;28;96546;-77
2022/03/23 04:11:38;;;;;;;15.43;6.87;;;2.40;60.50;;;0.54;55.33;101734.75;10220072;28;96592;-77
2022/03/23 04:16:41;;;;;;;17.07;7.57;;;2.30;59.50;;;0.47;55.72;101735.88;10262798;28;96450;-77
2022/03/23 04:21:45;;;;;;;16.97;6.47;;;2.30;60.30;;;0.39;56.29;101740.59;10220766;28;96535;-77
2022/03/23 04:26:48;;;;;;;15.13;6.93;;;2.20;61.90;;;0.31;56.59;101742.72;10274424;28;96459;-76
2022/03/23 04:31:51;;;;;;;18.73;7.07;;;2.10;61.10;;;0.21;56.63;101748.31;10249063;28;96563;-76
2022/03/23 04:36:54;;;;;;;12.80;5.60;;;2.10;61.60;;;0.09;57.32;101747.97;10235746;28;96546;-77
2022/03/23 04:41:56;;;;;;;15.00;6.17;;;2.00;61.10;;;-0.03;57.10;101757.16;10269510;28;96575;-77
2022/03/23 04:46:59;;;;;;;14.37;7.17;;;1.80;62.00;;;-0.12;58.17;101747.06;10246114;28;97933;-76
2022/03/23 04:52:03;;;;;;;14.93;6.93;;;1.70;63.60;;;-0.16;58.83;101743.72;10235849;28;96693;-77
2022/03/23 04:57:06;;;;;;;26.67;10.60;;;1.70;64.00;;;-0.14;59.00;101754.13;10247348;28;96757;-77
2022/03/23 05:02:09;;;;;;;57.37;18.27;;;1.60;62.30;;;-0.13;59.26;101759.28;10250950;28;96539;-78
2022/03/23 05:07:13;;;;;;;38.50;15.13;;;1.60;64.40;;;-0.12;59.73;101760.13;10246234;28;96576;-78
2022/03/23 05:12:16;;;;;;;35.13;13.83;;;1.60;65.90;;;-0.01;59.68;101764.00;10224656;28;98199;-78
2022/03/23 05:17:20;;;;;;;35.57;13.63;;;1.70;64.70;;;0.08;59.48;101768.03;10243956;28;96669;-78
2022/03/23 05:22:28;;;;;;;34.67;13.80;;;1.80;64.40;;;0.15;59.57;101769.47;10254212;28;96672;-77
2022/03/23 05:27:40;;;;;;;31.97;13.47;;;1.90;65.60;;;0.28;59.32;101768.97;10253276;28;96915;-77
2022/03/23 05:32:43;;;;;;;34.17;13.57;;;1.90;64.30;;;0.41;59.38;101770.16;10250718;28;96607;-78
2022/03/23 05:37:46;;;;;;;51.33;17.97;;;2.10;65.30;;;0.59;59.21;101771.13;10224816;28;96656;-78
2022/03/23 05:42:49;;;;;;;35.23;15.67;;;2.20;65.10;;;0.87;59.30;101769.03;10243539;28;96557;-78
2022/03/23 05:47:58;;;;;;;39.27;15.43;;;2.40;65.70;;;1.13;58.70;101767.00;10267527;28;97257;-78
2022/03/23 05:53:01;;;;;;;36.03;15.03;;;2.60;64.60;;;1.36;57.90;101773.84;10238766;28;96413;-78
2022/03/23 05:58:04;;;;;;;28.20;12.23;;;2.90;64.50;;;1.54;56.92;101755.50;10265873;28;96476;-78
2022/03/23 06:03:07;;;;;;;25.90;11.57;;;3.10;63.40;;;1.80;55.74;101766.50;10255811;28;96791;-78
2022/03/23 06:08:10;;;;;;;24.60;10.83;;;3.30;62.40;;;2.03;55.33;101758.38;10250451;28;96621;-77
2022/03/23 06:13:14;;;;;;;28.90;11.23;;;3.50;62.00;;;2.33;54.25;101758.63;10254775;28;96627;-78
2022/03/23 06:18:17;;;;;;;43.33;17.03;;;3.70;61.20;;;2.64;53.70;101759.72;10256127;28;96487;-78
2022/03/23 06:23:20;;;;;;;59.33;22.70;;;4.00;60.90;;;2.92;53.64;101759.97;10239898;28;96550;-78
2022/03/23 06:28:24;;;;;;;53.10;22.10;;;4.30;60.80;;;3.24;52.54;101765.31;10259038;28;96666;-78
2022/03/23 06:33:27;;;;;;;36.30;15.80;;;4.60;60.00;;;3.59;51.85;101766.00;10241682;28;96595;-78
2022/03/23 06:38:30;;;;;;;30.17;12.37;;;4.90;59.70;;;3.93;51.14;101769.38;10238100;28;96631;-78
2022/03/23 06:43:34;;;;;;;25.87;12.60;;;5.30;59.20;;;4.31;51.07;101769.81;10259052;28;96675;-78
2022/03/23 06:48:37;;;;;;;35.20;15.57;;;5.60;58.70;;;4.69;50.39;101777.25;10247095;28;96623;-78
2022/03/23 06:53:41;;;;;;;25.13;12.33;;;5.90;58.40;;;5.11;50.23;101765.91;10253944;28;96492;-79
2022/03/23 06:58:45;;;;;;;27.07;14.50;;;6.30;58.20;;;5.58;50.12;101756.81;10259268;28;96856;-79
2022/03/23 07:03:50;;;;;;;31.50;15.53;;;6.70;58.20;;;6.05;48.46;101758.19;10248941;28;97735;-79
2022/03/23 07:14:15;;;;;;;36.00;16.03;;;7.70;56.90;;;7.11;46.85;101759.78;10244973;28;96911;-78
2022/03/23 07:19:18;;;;;;;16.93;8.70;;;8.20;56.20;;;7.71;44.26;101751.94;10241391;28;96565;-78
2022/03/23 07:24:22;;;;;;;14.00;7.77;;;8.80;54.70;;;8.39;40.04;101757.56;10288325;28;96566;-78
2022/03/23 07:29:25;;;;;;;13.07;6.67;;;9.40;52.30;;;8.92;38.91;101745.50;10324835;28;96510;-78
2022/03/23 07:34:28;;;;;;;14.73;7.37;;;9.90;50.30;;;9.51;37.15;101739.94;10279206;28;96706;-78
2022/03/23 07:39:31;;;;;;;13.20;6.17;;;10.50;49.40;;;10.02;35.74;101741.13;10336280;28;96554;-79
2022/03/23 07:44:35;;;;;;;12.57;7.10;;;11.00;47.90;;;10.47;34.84;101738.28;10316922;28;96942;-79
2022/03/23 07:49:40;;;;;;;15.37;7.90;;;11.50;47.70;;;10.88;34.39;101732.94;10334178;28;97747;-78
2022/03/23 07:54:42;;;;;;;13.07;7.57;;;12.40;43.00;;;11.31;33.28;101729.16;10333355;28;96568;-78
2022/03/23 07:59:46;;;;;;;14.50;7.90;;;12.40;45.50;;;11.74;32.39;101728.00;10333300;28;96553;-79
2022/03/23 08:04:50;;;;;;;13.40;7.43;;;12.90;45.00;;;12.66;31.77;101733.75;10314493;28;96511;-79
2022/03/23 08:09:53;;;;;;;18.27;8.30;;;13.50;44.40;;;13.96;29.87;101710.47;10293529;28;97905;-79
2022/03/23 08:14:55;;;;;;;16.45;7.85;;;14.20;43.70;;;14.77;28.41;101717.47;10293326;28;96440;-79
2022/03/23 08:25:26;;;;;;;15.70;8.60;;;15.80;42.60;;;16.08;26.76;101708.88;10292140;28;96596;-79
2022/03/23 08:30:29;;;;;;;13.23;8.18;;;16.50;41.30;;;16.58;26.19;101699.78;10291259;28;96559;-79
2022/03/23 08:35:32;;;;;;;13.20;7.50;;;17.10;40.90;;;16.99;24.76;101697.03;10297493;28;96552;-79
2022/03/23 08:40:35;;;;;;;13.65;8.35;;;17.70;39.50;;;17.57;25.19;101693.03;10332055;28;96860;-79
2022/03/23 08:45:38;;;;;;;12.00;7.10;;;18.30;39.40;;;18.28;23.99;101682.94;10316120;28;96568;-79
2022/03/23 08:50:46;;;;;;;14.00;8.15;;;19.00;38.40;;;18.88;23.31;101688.22;10291837;28;96473;-79
2022/03/23 08:55:49;;;;;;;16.40;9.23;;;19.40;37.50;;;19.32;22.17;101687.34;10311336;28;96720;-79
2022/03/23 09:00:52;;;;;;;14.32;7.72;;;19.70;37.10;;;19.59;21.06;101676.91;10331738;28;96587;-79
2022/03/23 09:05:55;;;;;;;16.10;8.27;;;20.10;35.30;;;19.44;21.53;101677.75;10330770;28;96858;-79
2022/03/23 09:10:59;;;;;;;14.95;6.47;;;20.20;35.30;;;19.87;21.31;101671.59;10306919;28;96530;-79
2022/03/23 09:16:02;;;;;;;15.25;7.90;;;20.60;35.50;;;20.43;21.12;101669.75;10316430;28;96597;-79
2022/03/23 09:21:05;;;;;;;12.63;6.88;;;21.10;34.60;;;21.10;20.33;101661.00;10313132;28;96547;-80
2022/03/23 09:26:10;;;;;;;13.02;7.15;;;21.50;34.60;;;21.44;19.49;101648.47;10234897;28;97263;-79
2022/03/23 09:31:13;;;;;;;12.40;7.00;;;21.80;33.60;;;21.34;19.65;101645.31;10259825;28;97776;-79
2022/03/23 09:41:39;;;;;;;11.27;6.47;;;22.20;32.30;;;21.18;19.18;101634.84;10291343;28;96469;-78
2022/03/23 09:46:43;;;;;;;9.82;6.18;;;22.20;31.90;;;21.49;19.38;101631.63;10263104;28;96534;-78
2022/03/23 09:51:46;;;;;;;9.32;6.30;;;22.40;32.00;;;22.16;17.81;101619.81;10233940;28;96695;-79
2022/03/23 09:56:50;;;;;;;11.02;6.75;;;22.90;32.00;;;22.97;17.55;101608.59;10216349;28;96512;-79
2022/03/23 10:02:02;;;;;;;8.85;6.22;;;23.40;31.20;;;23.38;16.43;101605.44;10232694;28;96509;-78
2022/03/23 10:07:36;;;;;;;8.75;6.07;;;23.80;29.50;;;23.97;16.11;101598.75;10232102;28;96624;-79
2022/03/23 10:13:20;;;;;;;9.57;5.85;;;24.30;30.00;;;24.45;15.48;101599.97;10250747;28;96438;-78
2022/03/23 10:18:55;;;;;;;9.55;6.20;;;24.80;29.40;;;24.13;15.93;101586.50;10287673;28;96531;-79
2022/03/23 10:24:01;;;;;;;8.73;5.90;;;24.80;29.40;;;24.14;14.65;101590.88;10301843;28;97417;-79
2022/03/23 10:29:19;;;;;;;11.30;5.60;;;24.80;28.30;;;24.07;15.18;101576.53;10297796;28;96468;-79
2022/03/23 10:34:22;;;;;;;9.10;6.10;;;24.60;28.90;;;24.19;15.04;101580.16;10316447;28;96586;-78
2022/03/23 10:39:31;;;;;;;7.97;5.28;;;24.70;28.80;;;24.60;14.51;101570.56;10338669;28;96383;-78
2022/03/23 10:44:34;;;;;;;9.55;6.00;;;25.00;28.40;;;25.18;14.13;101550.13;10315982;28;96762;-80
2022/03/23 10:49:39;;;;;;;12.57;5.22;;;25.50;28.30;;;25.51;14.00;101541.47;10295945;28;96526;-79
2022/03/23 10:54:58;;;;;;;8.30;5.90;;;25.80;28.10;;;25.40;13.37;101545.00;10299452;28;96543;-79
2022/03/23 11:00:02;;;;;;;8.40;5.10;;;25.70;27.40;;;25.66;13.75;101530.13;10333366;28;96739;-79
2022/03/23 11:05:06;;;;;;;9.35;6.05;;;26.00;28.00;;;26.28;13.71;101523.13;10337076;28;96430;-80
2022/03/23 11:15:49;;;;;;;8.68;5.50;;;26.80;26.90;;;26.46;12.57;101507.72;10335322;28;96495;-79
2022/03/23 11:20:56;;;;;;;7.15;5.13;;;27.10;27.30;;;27.06;11.79;101502.63;10336311;28;96478;-79
2022/03/23 11:26:11;;;;;;;9.73;6.22;;;27.60;27.20;;;27.27;12.29;101500.22;10304647;28;96561;-79
2022/03/23 11:31:16;;;;;;;8.70;5.82;;;27.90;26.90;;;27.32;12.36;101478.50;10297538;28;96959;-79
2022/03/23 11:36:22;;;;;;;8.40;5.60;;;28.10;26.80;;;27.54;12.34;101478.56;10306593;28;96791;-79
2022/03/23 11:41:25;;;;;;;7.13;5.13;;;28.40;26.60;;;27.83;12.10;101469.22;10335763;28;96695;-79
2022/03/23 11:46:29;;;;;;;11.32;6.13;;;28.50;26.70;;;27.87;11.68;101464.88;10328696;28;97498;-79
2022/03/23 11:51:53;;;;;;;8.88;5.55;;;28.50;26.10;;;27.81;11.46;101451.41;10301779;28;96537;-79
2022/03/23 11:56:58;;;;;;;10.00;5.18;;;28.60;26.00;;;27.89;11.55;101442.75;10309756;28;96738;-79
2022/03/23 12:02:01;;;;;;;9.10;5.28;;;28.60;26.10;;;27.47;11.61;101440.53;10326435;28;96600;-79
2022/03/23 12:07:07;;;;;;;7.07;4.78;;;28.50;25.70;;;27.38;12.01;101429.19;10292531;28;96703;-79
2022/03/23 12:12:28;;;;;;;8.18;5.50;;;28.40;25.90;;;27.32;11.31;101430.19;10292216;28;96543;-79
2022/03/23 12:17:31;;;;;;;8.95;4.88;;;28.30;25.70;;;27.29;11.46;101417.06;10308569;28;96527;-79
2022/03/23 12:22:34;;;;;;;7.65;4.55;;;28.20;25.50;;;26.90;11.37;101414.19;10289792;28;96643;-80
2022/03/23 12:28:28;;;;;;;6.13;4.13;;;27.70;25.30;;;26.82;11.76;101409.16;10293568;28;96458;-79
2022/03/23 12:34:06;;;;;;;11.32;5.78;;;27.60;24.90;;;26.83;11.43;101402.63;10276455;28;96569;-78
2022/03/23 12:39:24;;;;;;;7.40;4.80;;;27.80;25.50;;;26.48;11.44;101396.56;10231656;28;97975;-77
2022/03/23 12:44:34;;;;;;;8.27;4.80;;;27.70;25.00;;;26.67;11.94;101389.81;10236391;28;96738;-78
2022/03/23 13:00:49;;;;;;;7.50;4.32;;;28.90;25.20;;;27.37;10.96;101369.41;10256889;28;96586;-77
2022/03/23 13:05:57;;;;;;;9.60;4.20;;;28.90;24.90;;;27.34;11.08;101361.69;10284719;28;96555;-79
2022/03/23 13:11:07;;;;;;;6.57;4.20;;;28.90;24.80;;;26.77;10.60;101354.53;10270529;28;96590;-79
2022/03/23 13:16:13;;;;;;;8.57;4.60;;;28.60;24.60;;;26.51;10.82;101346.97;10254958;28;98120;-79
2022/03/23 13:21:21;;;;;;;6.00;4.43;;;28.30;24.60;;;26.33;11.32;101340.69;10261562;28;96600;-80
2022/03/23 13:26:26;;;;;;;11.63;4.45;;;28.10;24.70;;;25.92;11.09;101344.50;10276525;28;96749;-79
2022/03/23 13:31:32;;;;;;;6.20;4.50;;;27.80;24.60;;;25.62;11.11;101341.97;10247758;28;96645;-79
2022/03/23 13:36:37;;;;;;;7.80;4.60;;;27.50;24.50;;;25.51;11.24;101329.19;10262463;28;96733;-80
2022/03/23 13:47:05;;;;;;;8.82;4.15;;;27.30;24.70;;;25.43;11.51;101322.25;10260123;28;97471;-79
2022/03/23 13:52:08;;;;;;;6.32;4.00;;;27.10;24.40;;;25.12;11.03;101312.56;10271006;28;97265;-79
2022/03/23 13:57:11;;;;;;;8.27;3.88;;;26.90;24.30;;;25.12;11.11;101301.66;10278542;28;97982;-80
2022/03/23 14:02:16;;;;;;;8.20;4.55;;;27.00;24.40;;;25.18;11.19;101299.91;10247264;28;96533;-79
2022/03/23 14:07:39;;;;;;;8.82;4.22;;;27.10;24.50;;;25.30;11.60;101285.22;10242743;28;96714;-79
2022/03/23 14:12:42;;;;;;;10.15;4.30;;;27.10;24.40;;;25.38;11.45;101272.31;10242017;28;96853;-79
2022/03/23 14:18:05;;;;;;;6.28;3.83;;;27.20;24.40;;;25.65;11.64;101267.16;10256283;28;96611;-80
2022/03/23 14:23:13;;;;;;;5.88;3.28;;;27.50;24.50;;;26.11;11.25;101258.00;10243895;28;96630;-80
2022/03/23 14:28:22;;;;;;;8.02;4.18;;;27.80;24.60;;;26.12;10.59;101263.19;10247493;28;96515;-80
2022/03/23 14:33:27;;;;;;;6.53;3.83;;;27.90;24.20;;;25.92;10.48;101242.94;10273597;28;96575;-80
2022/03/23 14:38:31;;;;;;;6.68;4.00;;;27.80;24.10;;;25.95;10.95;101245.16;10261632;28;96733;-80
2022/03/23 14:43:41;;;;;;;6.28;3.33;;;27.70;24.10;;;25.99;10.65;101236.25;10280763;28;96589;-80
2022/03/23 14:48:44;;;;;;;;;;;27.80;24.00;;;26.12;10.50;101226.94;10289028;28;96511;-81
2022/03/23 14:53:47;;;;;;;6.72;3.78;;;27.90;23.90;;;26.63;10.61;101220.47;10244876;28;96617;-80
2022/03/23 14:58:59;;;;;;;7.60;3.60;;;28.20;24.30;;;26.83;10.24;101219.94;10242361;28;96600;-81
2022/03/23 15:04:02;;;;;;;5.40;3.35;;;28.50;24.10;;;26.67;10.04;101205.25;10253643;28;96718;-80
2022/03/23 15:14:31;;;;;;;10.20;5.70;;;28.20;23.70;;;26.45;10.48;101200.81;10248749;28;96940;-81
2022/03/23 15:19:35;;;;;;;10.75;5.43;;;28.10;23.90;;;26.35;10.37;101199.56;10263600;28;96709;-80
2022/03/23 15:24:37;;;;;;;11.13;4.40;;;28.00;23.70;;;26.33;10.40;101182.63;10293033;28;96611;-81
2022/03/23 15:29:40;;;;;;;14.20;6.65;;;28.00;23.70;;;26.35;10.46;101179.66;10311206;28;96560;-80
2022/03/23 15:34:43;;;;;;;8.93;4.30;;;27.90;23.70;;;26.31;10.14;101181.22;10310324;28;97190;-80
2022/03/23 15:39:49;;;;;;;6.55;3.90;;;27.80;23.70;;;25.83;10.87;101175.25;10303563;28;96728;-79
2022/03/23 15:44:52;;;;;;;9.00;4.82;;;27.40;23.80;;;25.30;10.76;101184.56;10292715;28;96598;-80
2022/03/23 15:49:55;;;;;;;21.30;7.32;;;26.90;23.70;;;24.79;11.27;101174.47;10333529;28;96609;-81
2022/03/23 15:54:58;;;;;;;13.15;4.85;;;26.30;24.00;;;24.12;11.67;101169.38;10295449;28;97757;-80
2022/03/23 16:00:01;;;;;;;13.70;5.70;;;25.80;24.10;;;23.39;11.85;101164.13;10292274;28;96444;-80
2022/03/23 16:05:08;;;;;;;10.52;5.10;;;25.20;24.30;;;22.45;13.01;101177.06;10315683;28;96607;-80
2022/03/23 16:10:11;;;;;;;10.98;4.30;;;24.30;24.60;;;21.35;14.17;101176.53;10323090;28;96575;-80
2022/03/23 16:15:15;;;;;;;13.40;4.93;;;23.30;25.10;;;20.43;15.61;101178.38;10275465;28;96522;-80
2022/03/23 16:20:19;;;;;;;20.17;8.60;;;22.30;25.80;;;19.53;16.78;101177.81;10291923;28;96554;-80
2022/03/23 16:25:23;;;;;;;14.05;7.20;;;21.40;26.40;;;18.72;17.10;101184.91;10276298;28;96685;-80
2022/03/23 16:30:27;;;;;;;12.30;5.63;;;20.60;26.80;;;18.04;17.63;101184.53;10293755;28;96551;-80
2022/03/23 16:35:30;;;;;;;13.85;5.00;;;19.80;27.10;;;17.36;18.67;101184.00;10284844;28;96561;-79
2022/03/23 16:40:33;;;;;;;10.20;4.20;;;19.20;27.60;;;16.73;19.53;101196.19;10293386;28;96577;-80
2022/03/23 16:45:36;;;;;;;10.90;4.30;;;18.60;28.10;;;16.10;20.08;101196.56;10293030;28;96558;-79
2022/03/23 16:50:39;;;;;;;7.63;4.80;;;17.90;28.40;;;15.56;20.24;101193.88;10290733;28;96457;-79
2022/03/23 16:55:42;;;;;;;11.50;4.63;;;17.40;28.60;;;15.07;20.76;101200.28;10278955;28;96646;-79
2022/03/23 17:00:45;;;;;;;12.37;5.80;;;16.90;29.00;;;14.62;20.63;101199.06;10303146;28;97001;-80
2022/03/23 17:16:31;;;;;;;18.97;8.80;;;15.60;29.40;;;13.52;21.84;101213.66;10320743;28;96747;-79
2022/03/23 17:21:34;;;;;;;23.27;10.93;;;15.20;29.70;;;13.22;22.35;101212.38;10313655;28;96519;-80
2022/03/23 17:26:38;;;;;;;31.77;11.67;;;14.90;29.90;;;12.93;23.26;101204.69;10250731;28;96506;-79
2022/03/23 17:31:41;;;;;;;42.30;14.03;;;14.60;30.30;;;12.55;24.23;101222.81;10279784;28;97935;-79
2022/03/23 17:36:44;;;;;;;32.70;14.47;;;14.30;31.40;;;12.16;24.79;101227.66;10259122;28;96619;-79
2022/03/23 17:41:49;;;;;;;28.27;13.17;;;13.90;31.60;;;11.81;24.57;101220.47;10263604;28;96933;-80
2022/03/23 17:46:53;;;;;;;21.40;11.33;;;13.60;31.80;;;11.62;24.40;101224.06;10256266;28;96733;-79
2022/03/23 17:52:00;;;;;;;31.93;13.43;;;13.30;31.60;;;11.40;25.76;101229.84;10264344;28;97006;-80
2022/03/23 17:57:05;;;;;;;19.03;10.57;;;13.10;32.30;;;11.12;26.39;101229.81;10255636;28;97178;-79
2022/03/23 18:02:08;;;;;;;21.83;12.37;;;12.90;32.90;;;10.86;26.29;101239.44;10262944;28;96967;-79
2022/03/23 18:07:11;;;;;;;21.20;10.73;;;12.60;32.80;;;10.56;26.98;101237.81;10263165;28;96678;-80
2022/03/23 18:12:15;;;;;;;15.13;9.27;;;12.30;33.70;;;10.37;27.63;101242.16;10263888;28;96777;-79
2022/03/23 18:17:19;;;;;;;13.40;6.97;;;12.10;34.50;;;10.31;27.29;101234.75;10256962;28;96866;-79
2022/03/23 18:22:24;;;;;;;11.70;6.47;;;11.90;33.90;;;10.51;26.93;101242.72;10242902;28;97713;-78
2022/03/23 18:27:27;;;;;;;14.73;8.07;;;11.90;33.80;;;10.44;27.79;101240.63;10246564;28;96617;-78
2022/03/23 18:32:30;;;;;;;8.33;5.07;;;11.90;35.20;;;10.60;26.75;101236.53;10255741;28;96698;-79
2022/03/23 18:37:32;;;;;;;9.40;4.97;;;11.90;34.10;;;10.79;26.20;101228.50;10238491;28;96524;-78
2022/03/23 18:42:36;;;;;;;11.37;5.27;;;12.10;33.80;;;10.95;26.04;101227.91;10235643;28;98092;-78
2022/03/23 18:47:40;;;;;;;9.67;4.67;;;12.20;34.00;;;11.14;25.82;101213.69;10254472;28;96611;-78
2022/03/23 18:52:42;;;;;;;9.87;4.73;;;12.30;33.80;;;11.37;25.33;101220.31;10277769;28;96649;-79
2022/03/23 18:57:45;;;;;;;9.53;4.80;;;12.50;33.70;;;11.42;25.33;101211.88;10246024;28;96484;-78
2022/03/23 19:02:48;;;;;;;8.03;5.00;;;12.60;33.50;;;11.66;24.76;101204.16;10237758;28;97353;-78
2022/03/23 19:07:52;;;;;;;9.80;4.90;;;12.80;33.40;;;11.78;24.54;101204.78;10236324;28;97192;-79
2022/03/23 19:12:55;;;;;;;15.63;9.03;;;12.90;33.20;;;11.69;24.78;101205.69;10236449;28;96627;-79
2022/03/23 19:17:58;;;;;;;22.23;10.97;;;13.00;33.50;;;11.39;26.14;101213.00;10247133;28;97454;-78
2022/03/23 19:23:02;;;;;;;16.73;8.50;;;12.80;34.60;;;10.88;26.99;101209.03;10230832;28;96558;-78
2022/03/23 19:28:05;;;;;;;15.17;7.47;;;12.40;35.10;;;10.62;26.63;101205.34;10236307;28;96595;-78
2022/03/23 19:33:08;;;;;;;11.80;5.73;;;12.10;35.10;;;10.60;26.62;101201.97;10255320;28;97386;-78
2022/03/23 19:38:11;;;;;;;11.77;6.00;;;12.00;34.90;;;10.66;26.35;101199.56;10220024;28;96539;-78
2022/03/23 19:43:15;;;;;;;32.30;19.67;;;12.00;34.70;;;10.41;27.74;101211.66;10247146;28;96586;-78
2022/03/23 19:48:18;;;;;;;27.47;16.53;;;11.90;35.60;;;9.97;28.49;101213.06;10251394;28;97472;-78
2022/03/23 19:53:22;;;;;;;20.10;11.17;;;11.60;36.50;;;9.64;28.79;101215.09;10247416;28;96468;-78
2022/03/23 19:58:26;;;;;;;11.70;7.33;;;11.20;36.80;;;9.67;28.32;101208.69;10261871;28;96433;-78
2022/03/23 20:03:29;;;;;;;10.63;5.87;;;11.10;36.20;;;9.74;27.93;101204.50;10241434;28;96633;-78
2022/03/23 20:08:32;;;;;;;11.57;5.93;;;11.10;36.00;;;9.82;27.86;101196.69;10255783;28;96947;-78
2022/03/23 20:13:35;;;;;;;12.77;7.10;;;11.20;36.10;;;9.77;28.41;101198.06;10229966;28;96542;-78
2022/03/23 20:18:39;;;;;;;12.57;5.93;;;11.20;36.50;;;9.68;28.40;101191.78;10232443;28;97726;-78
2022/03/23 20:23:42;;;;;;;20.60;11.50;;;11.10;36.30;;;9.53;29.44;101193.16;10270256;28;96546;-78
2022/03/23 20:28:49;;;;;;;23.83;12.90;;;11.00;37.10;;;9.11;30.35;101193.31;10246319;28;96505;-78
2022/03/23 20:33:53;;;;;;;21.67;11.10;;;10.70;37.90;;;8.66;31.24;101188.38;10259419;28;97689;-78
2022/03/23 20:38:56;;;;;;;22.37;9.63;;;10.30;38.60;;;8.28;31.89;101196.91;10260223;28;96550;-78
2022/03/23 20:44:02;;;;;;;15.77;8.47;;;9.90;39.00;;;7.94;32.51;101201.50;10249104;28;96781;-78
2022/03/23 20:49:07;;;;;;;19.13;8.90;;;9.60;39.80;;;7.62;33.01;101199.69;10234693;28;98445;-78
2022/03/23 20:54:12;;;;;;;20.33;9.40;;;9.30;39.80;;;7.43;33.52;101194.19;10241736;28;98509;-78
2022/03/23 20:59:14;;;;;;;53.60;23.70;;;9.10;39.40;;;7.30;33.88;101193.50;10252697;28;96765;-77
2022/03/23 21:04:18;;;;;;;56.60;22.67;;;8.90;40.40;;;7.15;33.99;101208.78;10272414;28;96580;-77
2022/03/23 21:09:20;;;;;;;52.03;21.27;;;8.80;40.60;;;6.93;34.75;101191.97;10233696;28;96456;-77
2022/03/23 21:14:23;;;;;;;45.93;21.17;;;8.60;41.00;;;6.69;35.24;101197.34;10259681;28;96569;-77
2022/03/23 21:19:27;;;;;;;61.47;26.30;;;8.40;40.60;;;6.46;35.34;101206.19;10233644;28;96596;-77
2022/03/23 21:24:29;;;;;;;48.73;21.80;;;8.20;41.10;;;6.23;35.84;101202.63;10299773;28;96624;-78
2022/03/23 21:29:32;;;;;;;41.57;18.43;;;8.00;41.40;;;6.00;37.12;101191.19;10303354;28;96599;-78
2022/03/23 21:34:35;;;;;;;41.03;17.97;;;7.80;42.70;;;5.76;37.33;101196.44;10305261;28;96664;-78
2022/03/23 21:39:38;;;;;;;41.13;17.73;;;7.60;42.30;;;5.53;38.55;101192.84;10298903;28;97459;-78
2022/03/23 21:44:42;;;;;;;38.37;15.37;;;7.40;42.70;;;5.39;38.75;101192.97;10295571;28;96555;-78
2022/03/23 21:49:45;;;;;;;34.93;15.40;;;7.20;43.40;;;5.22;39.41;101188.94;10306142;28;96576;-78
2022/03/23 21:54:48;;;;;;;27.90;13.60;;;7.00;44.20;;;5.03;39.62;101185.91;10290359;28;97107;-78
2022/03/23 21:59:51;;;;;;;40.50;17.97;;;6.80;44.60;;;4.85;40.64;101190.66;10301349;28;96600;-78